Time;durP1;ratioP1;P1;durP2;ratioP2;P2;SDS_P1;SDS_P2;PMS_P1;PMS_P2;Temp;Humidity;BMP_temperature;BMP_pressure;BME280_temperature;BME280_humidity;BME280_pressure;Samples;Min_cycle;Max_cycle;Signal;HPM_P1;HPM_P2
2022/11/12 00:00:50;;;;;;;9.23;4.43;;;16.80;99.90;;;;;;5116148;27;20423;-84
2022/11/12 00:03:18;;;;;;;11.05;4.88;;;16.90;99.90;;;;;;5125291;27;20028;-81
2022/11/12 00:05:45;;;;;;;6.57;5.00;;;16.80;99.90;;;;;;5114553;28;20108;-82
2022/11/12 00:08:16;;;;;;;7.50;4.82;;;16.80;99.90;;;;;;5096082;28;20035;-82
2022/11/12 00:10:43;;;;;;;8.75;5.00;;;16.80;99.90;;;;;;5114343;28;20027;-81
2022/11/12 00:13:09;;;;;;;6.35;4.43;;;16.70;99.90;;;;;;5095620;28;20033;-83
2022/11/12 00:15:37;;;;;;;8.85;5.15;;;16.70;99.90;;;;;;5095468;28;20031;-83
2022/11/12 00:18:03;;;;;;;10.32;5.40;;;16.60;99.90;;;;;;5114582;28;20022;-83
2022/11/12 00:20:29;;;;;;;10.07;5.10;;;16.60;99.90;;;;;;5096071;28;20472;-82
2022/11/12 00:22:57;;;;;;;9.82;5.53;;;16.60;99.90;;;;;;5114326;28;20494;-82
2022/11/12 00:25:23;;;;;;;9.02;5.30;;;16.50;99.90;;;;;;5113797;28;20047;-82
2022/11/12 00:27:51;;;;;;;13.52;4.90;;;16.50;99.90;;;;;;5113882;28;20043;-82
2022/11/12 00:30:19;;;;;;;8.10;5.60;;;16.50;99.90;;;;;;5113833;28;20042;-83
2022/11/12 00:32:47;;;;;;;9.73;5.28;;;16.50;99.90;;;;;;5095777;28;20024;-82
2022/11/12 00:35:16;;;;;;;7.40;5.13;;;16.50;99.90;;;;;;5114542;28;20059;-82
2022/11/12 00:37:45;;;;;;;10.57;5.78;;;16.50;99.90;;;;;;5115049;28;20491;-83
2022/11/12 00:40:11;;;;;;;6.87;4.70;;;16.50;99.90;;;;;;5095489;28;20024;-82
2022/11/12 00:42:37;;;;;;;7.10;4.80;;;16.50;99.90;;;;;;5118722;27;20331;-81
2022/11/12 00:45:04;;;;;;;10.40;5.00;;;16.50;99.90;;;;;;5125546;27;20016;-82
2022/11/12 00:47:30;;;;;;;8.57;5.20;;;16.50;99.90;;;;;;5114869;27;20035;-83
2022/11/12 00:49:56;;;;;;;8.73;5.50;;;16.50;99.90;;;;;;5115277;27;20030;-84
2022/11/12 00:52:23;;;;;;;;;;;16.50;99.90;;;;;;5134330;27;20265;-82
2022/11/12 00:54:49;;;;;;;10.00;5.40;;;16.50;99.90;;;;;;5115945;27;19918;-83
2022/11/12 00:57:15;;;;;;;10.20;5.27;;;16.50;99.90;;;;;;5134459;27;20084;-82
2022/11/12 00:59:43;;;;;;;7.65;5.03;;;16.40;99.90;;;;;;5098562;27;20312;-81
2022/11/12 01:02:09;;;;;;;6.60;5.28;;;16.50;99.90;;;;;;5133519;27;20015;-82
2022/11/12 01:04:35;;;;;;;8.25;5.10;;;16.50;99.90;;;;;;5115158;27;20027;-82
2022/11/12 01:07:01;;;;;;;9.27;5.38;;;16.50;99.90;;;;;;5133458;27;20016;-82
2022/11/12 01:09:27;;;;;;;11.95;5.10;;;16.50;99.90;;;;;;5133326;27;20043;-82
2022/11/12 01:11:53;;;;;;;8.63;5.13;;;16.50;99.90;;;;;;5133438;27;20020;-82
2022/11/12 01:14:22;;;;;;;12.10;5.37;;;16.50;99.90;;;;;;5114473;27;20442;-83
2022/11/12 01:16:48;;;;;;;7.97;4.47;;;16.50;99.90;;;;;;5133198;27;20301;-82
2022/11/12 01:19:14;;;;;;;8.88;4.65;;;16.60;99.90;;;;;;5111742;27;20027;-82
2022/11/12 01:21:42;;;;;;;8.07;4.85;;;16.50;99.90;;;;;;5133263;27;20136;-82
2022/11/12 01:24:09;;;;;;;8.52;4.80;;;16.60;99.90;;;;;;5132972;27;20114;-83
2022/11/12 01:26:36;;;;;;;8.35;5.45;;;16.60;99.90;;;;;;5114621;27;20019;-83
2022/11/12 01:29:03;;;;;;;8.07;5.00;;;16.60;99.90;;;;;;5132754;27;20031;-82
2022/11/12 01:31:33;;;;;;;6.30;4.82;;;16.60;99.90;;;;;;5114849;27;20497;-83
2022/11/12 01:34:03;;;;;;;9.35;5.30;;;16.60;99.90;;;;;;5114297;27;20106;-83
2022/11/12 01:36:42;;;;;;;12.93;5.00;;;16.60;99.90;;;;;;5133254;27;20016;-82
2022/11/12 01:39:08;;;;;;;10.77;4.85;;;16.60;99.90;;;;;;5132449;27;20117;-82
2022/11/12 01:41:38;;;;;;;11.52;5.05;;;16.70;99.90;;;;;;5133052;27;20110;-83
2022/11/12 01:44:17;;;;;;;8.27;4.97;;;16.60;99.90;;;;;;5132916;27;20064;-83
2022/11/12 01:47:20;;;;;;;8.63;5.07;;;16.70;99.90;;;;;;5132356;27;20027;-82
2022/11/12 01:49:51;;;;;;;10.10;5.32;;;16.60;99.90;;;;;;5113917;27;20035;-83
2022/11/12 01:52:31;;;;;;;11.40;5.18;;;16.50;99.90;;;;;;5113889;27;20023;-82
2022/11/12 01:55:04;;;;;;;9.05;5.55;;;16.40;99.90;;;;;;5114463;27;20046;-83
2022/11/12 01:57:37;;;;;;;11.57;5.97;;;16.40;99.90;;;;;;5132418;27;20029;-82
2022/11/12 02:00:07;;;;;;;11.32;6.05;;;16.40;99.90;;;;;;5131677;27;20023;-82
2022/11/12 02:02:38;;;;;;;11.77;5.97;;;16.40;99.90;;;;;;5132508;27;20020;-83
2022/11/12 02:05:08;;;;;;;7.90;5.70;;;16.40;99.90;;;;;;5132299;27;20050;-80
2022/11/12 02:07:38;;;;;;;13.35;6.13;;;16.30;99.90;;;;;;5107536;27;20099;-82
2022/11/12 02:10:08;;;;;;;9.43;5.80;;;16.30;99.90;;;;;;5100995;28;20050;-82
2022/11/12 02:15:21;;;;;;;11.90;5.97;;;16.30;99.90;;;;;;5101199;28;20395;-81
2022/11/12 02:17:47;;;;;;;10.90;6.63;;;16.20;99.90;;;;;;5088464;28;20068;-83
2022/11/12 02:20:13;;;;;;;10.98;6.30;;;16.20;99.90;;;;;;5107072;27;20081;-82
2022/11/12 02:22:42;;;;;;;9.93;6.00;;;16.10;99.90;;;;;;5099725;28;20039;-82
2022/11/12 02:25:15;;;;;;;9.57;5.60;;;16.10;99.90;;;;;;5099381;28;20064;-83
2022/11/12 02:27:44;;;;;;;13.07;6.22;;;16.10;99.90;;;;;;5082628;28;20031;-82
2022/11/12 02:30:12;;;;;;;10.07;6.10;;;16.00;99.90;;;;;;5100702;28;20024;-82
2022/11/12 02:32:44;;;;;;;8.77;5.55;;;15.90;99.90;;;;;;5111461;28;20075;-83
2022/11/12 02:35:12;;;;;;;10.20;5.78;;;16.00;99.90;;;;;;5111915;28;20051;-82
2022/11/12 02:37:39;;;;;;;8.07;5.90;;;15.90;99.90;;;;;;5111351;28;20032;-82
2022/11/12 02:40:07;;;;;;;9.90;6.18;;;15.90;99.90;;;;;;5092600;28;20055;-82
2022/11/12 02:42:33;;;;;;;12.60;7.07;;;15.80;99.90;;;;;;5080938;28;20359;-82
2022/11/12 02:45:01;;;;;;;9.67;6.27;;;15.80;99.90;;;;;;5100689;28;20107;-78
2022/11/12 02:47:27;;;;;;;11.65;6.93;;;15.70;99.90;;;;;;5099866;28;20210;-82
2022/11/12 02:49:53;;;;;;;8.80;6.77;;;15.70;99.90;;;;;;5080702;28;20096;-83
2022/11/12 02:52:19;;;;;;;10.43;6.67;;;15.70;99.90;;;;;;5101084;28;20047;-82
2022/11/12 02:54:45;;;;;;;9.60;6.03;;;15.70;99.90;;;;;;5095516;28;20313;-83
2022/11/12 02:57:12;;;;;;;14.80;6.37;;;15.70;99.90;;;;;;5090967;28;20020;-82
2022/11/12 02:59:38;;;;;;;16.77;6.68;;;15.70;99.90;;;;;;5072385;28;20780;-82
2022/11/12 03:02:05;;;;;;;9.57;6.28;;;15.70;99.90;;;;;;5090497;28;20460;-82
2022/11/12 03:04:34;;;;;;;;;;;15.60;99.90;;;;;;5072786;28;20115;-82
2022/11/12 03:07:00;;;;;;;8.48;6.00;;;15.60;99.90;;;;;;5090885;28;19904;-81
2022/11/12 03:09:26;;;;;;;9.40;5.93;;;15.60;99.90;;;;;;5072577;28;20133;-82
2022/11/12 03:12:03;;;;;;;;;;;15.50;99.90;;;;;;5093599;28;20036;-81
2022/11/12 03:14:32;;;;;;;11.25;5.72;;;15.60;99.90;;;;;;5076062;28;19904;-82
2022/11/12 03:16:59;;;;;;;7.50;4.95;;;15.60;99.90;;;;;;5094367;28;20157;-82
2022/11/12 03:19:26;;;;;;;7.65;4.82;;;15.70;99.90;;;;;;5094404;28;20024;-81
2022/11/12 03:21:53;;;;;;;7.07;5.30;;;15.70;99.90;;;;;;5094535;28;20066;-82
2022/11/12 03:24:20;;;;;;;7.18;4.97;;;15.80;99.90;;;;;;5091681;28;20289;-78
2022/11/12 03:26:46;;;;;;;7.45;4.68;;;15.90;99.90;;;;;;5114201;28;20112;-83
2022/11/12 03:29:14;;;;;;;7.75;4.70;;;16.00;99.90;;;;;;5096060;28;20149;-83
2022/11/12 03:31:41;;;;;;;8.82;4.65;;;16.00;99.90;;;;;;5097153;28;20035;-83
2022/11/12 03:34:07;;;;;;;10.27;4.55;;;16.10;99.90;;;;;;5094359;28;20043;-80
2022/11/12 03:36:49;;;;;;;6.55;4.28;;;16.20;99.90;;;;;;5076242;28;20043;-82
2022/11/12 03:39:15;;;;;;;5.70;3.80;;;16.20;99.90;;;;;;5094565;28;20060;-81
2022/11/12 03:41:42;;;;;;;7.73;4.50;;;16.20;99.90;;;;;;5094372;28;20054;-82
2022/11/12 03:44:08;;;;;;;7.80;4.20;;;16.20;99.90;;;;;;5093452;28;20320;-81
2022/11/12 03:46:50;;;;;;;7.90;3.97;;;16.30;99.90;;;;;;5093806;28;20056;-82
2022/11/12 03:49:16;;;;;;;8.07;3.65;;;16.30;99.90;;;;;;5093832;28;20294;-83
2022/11/12 03:51:42;;;;;;;8.68;3.92;;;16.30;99.90;;;;;;5093897;28;20032;-82
2022/11/12 03:54:08;;;;;;;8.17;4.10;;;16.30;99.90;;;;;;5093931;28;20032;-82
2022/11/12 03:56:37;;;;;;;6.37;3.67;;;16.40;99.90;;;;;;5097720;27;20317;-83
2022/11/12 03:59:03;;;;;;;5.60;3.90;;;16.40;99.90;;;;;;5135166;27;20019;-81
2022/11/12 04:01:29;;;;;;;9.13;4.38;;;16.50;99.90;;;;;;5135508;27;20023;-82
2022/11/12 04:03:55;;;;;;;7.38;4.20;;;16.50;99.90;;;;;;5134309;27;20023;-81
2022/11/12 04:09:06;;;;;;;10.05;5.05;;;16.40;99.90;;;;;;5134984;27;20276;-81
2022/11/12 04:11:32;;;;;;;6.78;4.72;;;16.40;99.90;;;;;;5134816;27;20027;-82
2022/11/12 04:14:00;;;;;;;9.70;5.00;;;16.40;99.90;;;;;;5118791;27;20475;-83
2022/11/12 04:22:09;;;;;;;10.30;5.38;;;16.20;99.90;;;;;;5113125;28;20397;-82
2022/11/12 04:27:46;;;;;;;11.90;5.90;;;16.00;99.90;;;;;;5114913;28;20112;-84
2022/11/12 04:30:17;;;;;;;7.93;4.82;;;16.00;99.90;;;;;;5128646;27;20104;-81
2022/11/12 04:32:47;;;;;;;9.35;5.80;;;16.00;99.90;;;;;;5135550;27;20098;-82
2022/11/12 04:35:14;;;;;;;13.02;5.57;;;16.00;99.90;;;;;;5116134;27;20061;-80
2022/11/12 04:37:43;;;;;;;7.40;5.07;;;15.90;99.90;;;;;;5134823;27;20037;-84
2022/11/12 04:46:04;;;;;;;8.77;5.57;;;16.00;99.90;;;;;;5135036;27;20031;-81
2022/11/12 04:48:31;;;;;;;10.80;6.22;;;16.00;99.90;;;;;;5135409;27;20175;-80
2022/11/12 04:52:03;;;;;;;8.40;5.30;;;16.00;99.90;;;;;;5135163;27;20081;-81
2022/11/12 04:53:53;;;;;;;10.70;5.07;;;16.00;99.90;;;;;;5111679;27;20083;-80
2022/11/12 04:56:20;;;;;;;14.18;5.30;;;16.00;99.90;;;;;;5134497;27;20152;-79
2022/11/12 04:58:46;;;;;;;8.45;5.35;;;16.00;99.90;;;;;;5134178;27;20050;-78
2022/11/12 05:01:12;;;;;;;7.20;4.97;;;16.00;99.90;;;;;;5134001;27;20015;-77
2022/11/12 05:03:39;;;;;;;12.53;5.50;;;16.00;99.90;;;;;;5134118;27;20031;-75
2022/11/12 05:08:55;;;;;;;11.05;5.10;;;16.10;99.90;;;;;;5104205;27;20379;-76
2022/11/12 05:11:22;;;;;;;8.35;5.05;;;16.10;99.90;;;;;;5115204;27;20031;-76
2022/11/12 05:13:48;;;;;;;10.23;5.45;;;16.00;99.90;;;;;;5134008;27;20029;-74
2022/11/12 05:16:15;;;;;;;11.27;5.83;;;16.00;99.90;;;;;;5133965;27;20121;-83
2022/11/12 05:18:43;;;;;;;12.80;5.68;;;16.10;99.90;;;;;;5134619;27;20275;-86
2022/11/12 05:23:53;;;;;;;10.25;5.30;;;16.10;99.90;;;;;;5134884;27;20085;-88
2022/11/12 05:26:20;;;;;;;14.80;6.00;;;16.10;99.90;;;;;;5135688;27;20027;-91
2022/11/12 05:28:46;;;;;;;9.85;5.72;;;16.10;99.90;;;;;;5116802;27;20452;-87
2022/11/12 05:31:12;;;;;;;9.53;5.93;;;16.20;99.90;;;;;;5135547;27;20015;-90
2022/11/12 05:33:39;;;;;;;11.32;5.80;;;16.20;99.90;;;;;;5116826;27;20253;-89
2022/11/12 05:36:06;;;;;;;7.28;5.07;;;16.20;99.90;;;;;;5116231;27;20034;-88
2022/11/12 05:38:32;;;;;;;8.35;5.38;;;16.20;99.90;;;;;;5116046;27;20064;-89
2022/11/12 05:40:58;;;;;;;8.90;5.55;;;16.10;99.90;;;;;;5134803;27;20031;-88
2022/11/12 05:43:26;;;;;;;9.18;5.35;;;16.10;99.90;;;;;;5132870;27;20407;-88
2022/11/12 05:46:13;;;;;;;;;;;16.10;99.90;;;;;;5116619;27;20133;-87
2022/11/12 05:48:39;;;;;;;7.47;5.35;;;16.00;99.90;;;;;;5135080;27;19914;-88
2022/11/12 05:51:05;;;;;;;10.00;6.00;;;16.10;99.90;;;;;;5134670;27;20071;-82
2022/11/12 05:53:31;;;;;;;13.35;5.90;;;16.10;99.90;;;;;;5134159;27;20019;-89
2022/11/12 05:56:05;;;;;;;;;;;16.20;99.90;;;;;;5134632;27;20395;-88
2022/11/12 05:58:32;;;;;;;8.77;5.20;;;16.30;99.90;;;;;;5134285;27;19957;-88
2022/11/12 06:01:01;;;;;;;8.45;5.68;;;16.30;99.90;;;;;;5134765;27;20030;-88
2022/11/12 06:03:28;;;;;;;12.45;6.03;;;16.20;99.90;;;;;;5134217;27;20027;-85
2022/11/12 06:05:54;;;;;;;10.90;5.28;;;16.20;99.90;;;;;;5134130;27;20020;-86
2022/11/12 06:08:22;;;;;;;11.57;5.40;;;16.10;99.90;;;;;;5133835;27;20454;-86
2022/11/12 06:10:50;;;;;;;8.63;5.40;;;16.10;99.90;;;;;;5115688;27;20066;-84
2022/11/12 06:13:24;;;;;;;8.82;5.38;;;16.10;99.90;;;;;;5134073;27;20023;-86
2022/11/12 06:15:54;;;;;;;9.65;4.82;;;16.50;99.90;;;;;;5134410;27;20031;-86
2022/11/12 06:18:21;;;;;;;16.55;4.75;;;16.90;99.90;;;;;;5115140;27;20027;-76
2022/11/12 06:21:18;;;;;;;6.15;3.70;;;17.60;99.90;;;;;;5133512;27;20033;-76
2022/11/12 06:23:34;;;;;;;5.20;3.63;;;18.20;99.90;;;;;;5133014;27;20058;-77
2022/11/12 06:26:01;;;;;;;7.25;3.85;;;18.70;99.90;;;;;;5133756;27;20023;-77
2022/11/12 06:28:26;;;;;;;;;;;19.10;99.90;;;;;;5132893;27;20019;-83
2022/11/12 06:30:53;;;;;;;8.38;3.45;;;19.50;99.90;;;;;;5114407;28;19914;-83
2022/11/12 06:33:19;;;;;;;7.70;3.85;;;20.00;99.90;;;;;;5133336;27;20476;-84
2022/11/12 06:35:46;;;;;;;8.80;3.60;;;20.40;99.90;;;;;;5133590;27;20031;-84
2022/11/12 06:38:12;;;;;;;10.85;3.60;;;20.40;99.90;;;;;;5114982;28;20106;-83
2022/11/12 06:40:38;;;;;;;6.78;3.30;;;20.00;99.90;;;;;;5133271;27;20030;-81
2022/11/12 06:43:04;;;;;;;7.40;4.10;;;19.50;99.90;;;;;;5133192;28;20024;-82
2022/11/12 06:45:30;;;;;;;6.68;4.00;;;19.10;99.90;;;;;;5132087;27;20475;-82
2022/11/12 06:47:58;;;;;;;6.50;4.05;;;18.70;99.90;;;;;;5132117;28;20027;-81
2022/11/12 06:50:25;;;;;;;8.13;4.15;;;18.20;99.90;;;;;;5132744;28;20035;-81
2022/11/12 06:52:56;;;;;;;10.10;4.57;;;18.00;99.90;;;;;;5132259;28;20148;-82
2022/11/12 06:55:22;;;;;;;8.93;4.47;;;17.70;99.90;;;;;;5132491;28;20483;-81
2022/11/12 06:57:52;;;;;;;10.70;4.35;;;17.60;99.90;;;;;;5131821;28;20122;-79
2022/11/12 07:00:19;;;;;;;7.97;4.40;;;17.40;99.90;;;;;;5113322;28;20110;-80
2022/11/12 07:02:48;;;;;;;11.25;5.22;;;17.40;99.90;;;;;;5112956;28;20122;-80
2022/11/12 07:05:14;;;;;;;11.60;4.53;;;17.40;99.90;;;;;;5113410;28;20419;-80
2022/11/12 07:07:40;;;;;;;9.07;4.85;;;17.40;99.90;;;;;;5132475;28;20023;-81
2022/11/12 07:10:07;;;;;;;10.05;4.18;;;17.50;99.90;;;;;;5132467;28;20061;-82
2022/11/12 07:12:33;;;;;;;8.18;4.28;;;17.70;99.90;;;;;;5113950;28;20031;-82
2022/11/12 07:14:59;;;;;;;10.05;3.83;;;18.00;99.90;;;;;;5132059;28;20034;-85
2022/11/12 07:17:25;;;;;;;7.45;4.13;;;18.50;99.90;;;;;;5133393;28;20482;-86
2022/11/12 07:19:51;;;;;;;13.57;4.25;;;19.30;99.90;;;;;;5133124;28;20024;-87
2022/11/12 07:22:17;;;;;;;8.93;4.00;;;19.70;99.90;;;;;;5132688;28;20023;-89
2022/11/12 07:24:43;;;;;;;7.35;3.50;;;20.20;99.90;;;;;;5093663;28;20051;-85
2022/11/12 07:27:09;;;;;;;8.80;3.75;;;20.70;99.90;;;;;;5112135;28;20024;-83
2022/11/12 07:29:35;;;;;;;5.45;3.47;;;20.80;99.90;;;;;;5112114;28;20092;-83
2022/11/12 07:32:01;;;;;;;9.98;4.00;;;21.00;99.90;;;;;;5111478;28;20377;-82
2022/11/12 07:34:28;;;;;;;9.38;3.40;;;21.00;99.90;;;;;;5112009;28;20042;-83
2022/11/12 07:36:54;;;;;;;10.10;3.85;;;21.20;99.90;;;;;;5111477;28;20146;-83
2022/11/12 07:39:20;;;;;;;7.75;3.33;;;21.20;99.90;;;;;;5112971;28;20027;-84
2022/11/12 07:41:46;;;;;;;8.88;3.65;;;21.00;99.90;;;;;;5112512;28;20023;-85
2022/11/12 07:44:12;;;;;;;6.70;2.85;;;20.60;99.90;;;;;;5112398;28;20051;-84
2022/11/12 07:46:42;;;;;;;15.45;3.65;;;20.40;99.90;;;;;;5112093;28;20472;-84
2022/11/12 07:49:08;;;;;;;5.85;3.60;;;20.20;99.90;;;;;;5111768;28;20195;-84
2022/11/12 07:51:34;;;;;;;9.20;3.55;;;20.20;99.90;;;;;;5110806;28;20047;-83
2022/11/12 07:54:01;;;;;;;8.25;3.88;;;20.20;99.90;;;;;;5112042;28;20023;-83
2022/11/12 07:56:27;;;;;;;8.77;3.83;;;20.20;99.90;;;;;;5112096;28;20023;-83
2022/11/12 07:58:53;;;;;;;10.07;4.60;;;20.10;99.90;;;;;;5114092;28;20085;-83
2022/11/12 08:01:30;;;;;;;10.15;4.60;;;20.00;99.90;;;;;;5115827;27;20068;-86
2022/11/12 08:03:57;;;;;;;8.55;4.43;;;20.10;99.90;;;;;;5115539;28;20053;-84
2022/11/12 08:06:23;;;;;;;;;;;20.10;99.90;;;;;;5116110;28;20060;-87
2022/11/12 08:08:53;;;;;;;12.65;4.55;;;20.20;99.90;;;;;;5115531;28;19908;-84
2022/11/12 08:11:21;;;;;;;9.43;4.00;;;20.20;99.90;;;;;;5113391;28;20088;-84
2022/11/12 08:13:47;;;;;;;9.48;4.22;;;20.30;99.90;;;;;;5115153;28;20349;-85
2022/11/12 08:16:13;;;;;;;9.02;4.30;;;20.50;99.90;;;;;;5116142;28;20084;-84
2022/11/12 08:18:39;;;;;;;8.75;4.18;;;20.90;99.90;;;;;;5116044;28;20015;-79
2022/11/12 08:21:09;;;;;;;14.95;4.50;;;21.30;99.90;;;;;;5113748;28;20481;-80
2022/11/12 08:23:38;;;;;;;9.55;4.00;;;21.70;99.90;;;;;;5120990;27;20016;-81
2022/11/12 08:26:08;;;;;;;10.75;4.43;;;22.30;99.90;;;;;;5136504;27;20104;-82
2022/11/12 08:28:37;;;;;;;8.35;3.90;;;22.70;99.90;;;;;;5134951;27;20093;-82
2022/11/12 08:31:05;;;;;;;11.23;4.15;;;23.00;99.90;;;;;;5118078;27;20500;-85
2022/11/12 08:33:34;;;;;;;11.80;3.80;;;23.20;99.90;;;;;;5136943;27;20473;-84
2022/11/12 08:36:06;;;;;;;6.00;2.97;;;23.10;99.90;;;;;;5135425;27;20027;-83
2022/11/12 08:38:33;;;;;;;9.40;3.33;;;23.40;99.90;;;;;;5135148;27;20051;-83
2022/11/12 08:41:00;;;;;;;;;;;23.40;99.90;;;;;;5116358;27;20118;-82
2022/11/12 08:43:26;;;;;;;12.05;4.22;;;23.40;99.90;;;;;;5133379;27;19907;-82
2022/11/12 08:46:05;;;;;;;10.13;3.58;;;22.90;99.90;;;;;;5129595;27;20024;-83
2022/11/12 08:48:33;;;;;;;10.07;3.42;;;22.70;99.90;;;;;;5113926;28;20049;-83
2022/11/12 08:51:04;;;;;;;8.68;4.05;;;22.30;99.90;;;;;;5113625;28;20028;-83
2022/11/12 08:53:30;;;;;;;10.63;4.07;;;21.30;99.90;;;;;;5113937;28;20463;-81
2022/11/12 08:55:57;;;;;;;;;;;20.90;99.90;;;;;;5133472;27;20023;-84
2022/11/12 08:58:24;;;;;;;8.80;4.25;;;20.90;99.90;;;;;;5134216;27;19910;-83
2022/11/12 09:00:52;;;;;;;10.23;3.95;;;21.10;99.90;;;;;;5116528;27;20045;-84
2022/11/12 09:03:20;;;;;;;7.18;3.58;;;21.50;99.90;;;;;;5092448;28;20034;-82
2022/11/12 09:05:47;;;;;;;7.03;3.80;;;22.00;99.90;;;;;;5095170;28;20027;-83
2022/11/12 09:08:16;;;;;;;6.55;3.75;;;22.20;99.90;;;;;;5113492;28;20020;-84
2022/11/12 09:10:43;;;;;;;7.30;4.13;;;22.30;99.90;;;;;;5118345;27;20031;-84
2022/11/12 09:13:09;;;;;;;8.38;3.72;;;22.60;99.90;;;;;;5099976;28;20047;-83
2022/11/12 09:15:47;;;;;;;9.77;3.65;;;22.60;99.90;;;;;;5094848;28;20083;-84
2022/11/12 09:18:17;;;;;;;7.85;3.47;;;22.50;99.90;;;;;;5113816;28;20031;-84
2022/11/12 09:20:43;;;;;;;6.93;3.67;;;22.60;99.90;;;;;;5118787;27;20034;-83
2022/11/12 09:23:13;;;;;;;8.45;3.60;;;22.60;99.90;;;;;;5134241;27;20042;-82
2022/11/12 09:25:40;;;;;;;6.38;2.95;;;22.60;99.90;;;;;;5134163;27;20393;-83
2022/11/12 09:28:12;;;;;;;8.15;3.28;;;22.90;99.90;;;;;;5134258;27;20030;-82
2022/11/12 09:30:45;;;;;;;9.18;3.50;;;22.80;99.90;;;;;;5134276;27;20046;-83
2022/11/12 09:33:16;;;;;;;7.78;3.63;;;22.60;99.90;;;;;;5134674;27;20022;-82
2022/11/12 09:35:44;;;;;;;7.63;3.67;;;22.50;99.90;;;;;;5134321;27;20352;-82
2022/11/12 09:38:10;;;;;;;7.70;3.65;;;22.50;99.90;;;;;;5134145;27;20540;-82
2022/11/12 09:40:51;;;;;;;6.60;3.13;;;22.70;99.90;;;;;;5133872;27;20023;-84
2022/11/12 09:43:22;;;;;;;5.70;3.30;;;22.90;99.90;;;;;;5134044;27;20026;-84
2022/11/12 09:45:50;;;;;;;8.70;3.15;;;23.00;99.90;;;;;;5134432;27;20019;-83
2022/11/12 09:48:48;;;;;;;7.35;4.40;;;22.70;99.90;;;;;;5134044;27;20501;-82
2022/11/12 09:51:31;;;;;;;8.35;3.03;;;22.60;99.90;;;;;;5094955;28;20122;-79
2022/11/12 09:54:01;;;;;;;6.88;3.00;;;22.00;99.90;;;;;;5113278;28;20186;-84
2022/11/12 09:56:28;;;;;;;8.20;3.20;;;21.80;99.90;;;;;;5094531;28;20020;-82
2022/11/12 09:58:56;;;;;;;7.93;4.65;;;22.10;99.90;;;;;;5112852;28;20024;-82
2022/11/12 10:01:35;;;;;;;12.77;5.18;;;22.30;99.90;;;;;;5112543;28;20369;-82
2022/11/12 10:04:25;;;;;;;10.40;5.90;;;22.20;99.90;;;;;;5112678;28;20072;-82
2022/11/12 10:07:08;;;;;;;9.07;5.35;;;22.30;99.90;;;;;;5112709;28;20379;-82
2022/11/12 10:10:13;;;;;;;11.73;5.55;;;22.40;99.90;;;;;;5112335;28;20055;-81
2022/11/12 10:12:54;;;;;;;8.70;4.15;;;22.90;99.90;;;;;;5112138;28;20030;-81
2022/11/12 10:18:53;;;;;;;10.68;4.88;;;23.70;99.90;;;;;;5112478;28;20435;-83
2022/11/12 10:21:37;;;;;;;9.77;4.57;;;23.80;99.90;;;;;;5112002;28;20023;-82
2022/11/12 10:24:08;;;;;;;11.43;4.80;;;23.60;99.90;;;;;;5111966;28;20051;-82
2022/11/12 10:26:37;;;;;;;11.63;4.18;;;23.30;99.90;;;;;;5111725;28;20497;-80
2022/11/12 10:29:34;;;;;;;9.38;4.05;;;23.50;99.90;;;;;;5111434;28;20051;-80
2022/11/12 10:32:01;;;;;;;8.60;3.97;;;23.40;99.90;;;;;;5111633;28;20094;-80
2022/11/12 10:34:30;;;;;;;7.45;4.20;;;23.20;99.90;;;;;;5111256;28;20073;-81
2022/11/12 10:37:01;;;;;;;8.27;4.32;;;23.00;99.90;;;;;;5111192;28;20032;-81
2022/11/12 10:39:43;;;;;;;9.93;4.38;;;22.80;99.90;;;;;;5111659;28;20043;-81
2022/11/12 10:42:10;;;;;;;7.40;4.40;;;22.80;99.90;;;;;;5099758;22;20028;-81
2022/11/12 10:44:42;;;;;;;9.52;4.50;;;22.90;99.90;;;;;;5052929;28;20438;-82
2022/11/12 10:47:24;;;;;;;10.32;4.68;;;22.70;99.90;;;;;;5071707;28;20021;-83
2022/11/12 10:50:15;;;;;;;21.95;6.25;;;22.70;99.90;;;;;;5052841;28;20044;-82
2022/11/12 10:52:57;;;;;;;8.90;5.07;;;22.60;99.90;;;;;;5052663;28;20123;-82
2022/11/12 10:55:36;;;;;;;13.60;5.80;;;22.80;99.90;;;;;;5071104;28;20082;-84
2022/11/12 10:58:09;;;;;;;8.75;4.97;;;22.80;99.90;;;;;;5052617;28;20020;-84
2022/11/12 11:00:55;;;;;;;10.70;5.47;;;22.90;99.90;;;;;;5071026;28;20021;-83
2022/11/12 11:03:22;;;;;;;;;;;22.80;99.90;;;;;;5071466;28;20035;-84
2022/11/12 11:06:15;;;;;;;9.93;4.72;;;22.70;99.90;;;;;;5076994;22;20303;-85
2022/11/12 11:08:47;;;;;;;9.98;5.40;;;22.80;99.90;;;;;;5052303;28;20361;-86
2022/11/12 11:11:17;;;;;;;10.98;5.32;;;23.00;99.90;;;;;;5065980;22;20061;-86
2022/11/12 11:13:44;;;;;;;10.30;5.43;;;23.10;99.90;;;;;;5050247;28;20112;-85
2022/11/12 11:16:21;;;;;;;13.02;5.63;;;23.00;99.90;;;;;;5051244;28;20029;-86
2022/11/12 11:18:54;;;;;;;15.25;7.07;;;23.10;99.90;;;;;;5049846;28;20051;-86
2022/11/12 11:21:29;;;;;;;14.93;7.18;;;23.20;99.90;;;;;;5050562;28;20033;-88
2022/11/12 11:24:13;;;;;;;14.30;6.38;;;23.20;99.90;;;;;;5051286;28;20036;-86
2022/11/12 11:26:54;;;;;;;13.13;6.55;;;23.20;99.90;;;;;;5050801;28;20100;-86
2022/11/12 11:29:33;;;;;;;12.55;6.57;;;23.20;99.90;;;;;;5050603;28;20037;-86
2022/11/12 11:32:15;;;;;;;10.48;6.15;;;23.00;99.90;;;;;;5034520;28;20025;-85
2022/11/12 11:35:02;;;;;;;8.60;5.38;;;23.10;99.90;;;;;;5054465;28;20123;-88
2022/11/12 11:37:42;;;;;;;7.00;4.53;;;23.20;99.90;;;;;;5054124;28;20191;-85
2022/11/12 11:40:47;;;;;;;14.25;6.32;;;23.20;99.90;;;;;;5054061;28;20067;-85
2022/11/12 11:43:41;;;;;;;13.40;6.65;;;23.30;99.90;;;;;;5051616;28;20525;-86
2022/11/12 11:46:50;;;;;;;13.95;5.75;;;23.60;99.90;;;;;;5054384;28;20037;-85
2022/11/12 11:49:29;;;;;;;16.15;6.00;;;23.70;99.90;;;;;;5054691;28;20039;-76
2022/11/12 11:52:13;;;;;;;10.52;4.78;;;23.60;99.90;;;;;;5055910;28;20029;-84
2022/11/12 11:55:13;;;;;;;12.48;4.68;;;23.90;99.90;;;;;;5057176;28;20122;-83
2022/11/12 11:58:06;;;;;;;9.57;4.20;;;24.10;99.90;;;;;;5057506;28;20028;-84
2022/11/12 12:00:59;;;;;;;11.63;4.47;;;24.10;99.90;;;;;;5057150;28;20090;-85
2022/11/12 12:03:30;;;;;;;9.20;3.90;;;23.90;99.90;;;;;;5037104;28;20040;-84
2022/11/12 12:05:59;;;;;;;12.73;5.10;;;23.90;99.90;;;;;;5055110;28;20430;-85
2022/11/12 12:09:02;;;;;;;12.80;3.83;;;23.70;99.90;;;;;;5054022;28;20032;-84
2022/11/12 12:11:58;;;;;;;10.80;4.78;;;23.90;99.90;;;;;;5053627;28;20135;-85
2022/11/12 12:14:54;;;;;;;10.52;4.40;;;23.70;99.90;;;;;;5053825;28;20021;-86
2022/11/12 12:17:50;;;;;;;14.43;5.00;;;23.80;99.90;;;;;;5054400;28;20110;-89
2022/11/12 12:20:34;;;;;;;9.90;4.55;;;23.80;99.90;;;;;;5054289;28;20377;-87
2022/11/12 12:23:25;;;;;;;6.80;3.53;;;23.70;99.90;;;;;;5036700;28;20468;-90
2022/11/12 12:25:55;;;;;;;10.40;4.45;;;23.60;99.90;;;;;;5037126;28;20128;-91
2022/11/12 12:28:42;;;;;;;6.68;3.30;;;23.70;99.90;;;;;;5036908;28;20029;-91
2022/11/12 12:31:15;;;;;;;8.98;4.40;;;23.70;99.90;;;;;;5056654;28;20048;-93
2022/11/12 12:33:51;;;;;;;8.95;4.63;;;23.70;99.90;;;;;;5038616;28;20445;-82
2022/11/12 12:36:28;;;;;;;;;;;23.50;99.90;;;;;;5054454;28;20036;-83
2022/11/12 12:39:17;;;;;;;10.93;4.38;;;23.70;99.90;;;;;;5056709;28;19999;-83
2022/11/12 12:42:11;;;;;;;13.00;5.20;;;24.00;99.90;;;;;;5054630;28;20025;-83
2022/11/12 12:45:14;;;;;;;10.75;6.55;;;24.20;99.90;;;;;;5036869;28;20029;-85
2022/11/12 12:47:43;;;;;;;8.50;5.43;;;24.20;99.90;;;;;;5036070;28;20122;-85
2022/11/12 12:50:16;;;;;;;9.68;5.00;;;24.10;99.90;;;;;;5054526;28;20040;-88
2022/11/12 12:53:12;;;;;;;7.75;4.63;;;24.20;99.90;;;;;;5036324;28;20021;-85
2022/11/12 12:55:39;;;;;;;12.75;5.40;;;24.30;99.90;;;;;;5012920;28;20045;-87
2022/11/12 12:58:25;;;;;;;8.02;4.55;;;24.30;99.90;;;;;;5011819;28;20459;-82
2022/11/12 13:01:42;;;;;;;7.97;3.95;;;24.20;99.90;;;;;;5012232;28;20054;-80
2022/11/12 13:04:13;;;;;;;9.43;4.85;;;24.20;99.90;;;;;;4956208;28;20078;-84
2022/11/12 13:07:03;;;;;;;10.88;5.75;;;24.10;99.90;;;;;;4958862;29;20558;-84
2022/11/12 13:09:32;;;;;;;9.45;5.32;;;24.10;99.90;;;;;;4896664;29;20048;-81
2022/11/12 13:14:35;;;;;;;9.10;4.07;;;24.20;99.90;;;;;;4895977;29;20029;-81
2022/11/12 13:17:07;;;;;;;6.20;3.05;;;24.30;99.90;;;;;;4896633;29;20084;-81
2022/11/12 13:19:56;;;;;;;10.32;3.38;;;24.40;99.90;;;;;;4896437;29;20048;-80
2022/11/12 13:22:25;;;;;;;8.27;3.80;;;24.20;99.90;;;;;;4896341;29;20123;-79
2022/11/12 13:25:09;;;;;;;9.55;4.25;;;24.00;99.90;;;;;;4896538;29;20032;-80
2022/11/12 13:27:41;;;;;;;9.45;4.03;;;24.10;99.90;;;;;;4896243;29;20556;-81
2022/11/12 13:30:16;;;;;;;5.88;3.20;;;24.00;99.90;;;;;;4896373;29;20040;-82
2022/11/12 13:32:51;;;;;;;12.50;3.88;;;23.90;99.90;;;;;;4870035;29;20497;-78
2022/11/12 13:35:41;;;;;;;8.40;3.60;;;23.80;99.90;;;;;;4908073;23;20033;-77
2022/11/12 13:38:07;;;;;;;8.90;3.70;;;23.70;99.90;;;;;;5089723;22;20503;-81
2022/11/12 13:43:46;;;;;;;14.52;3.90;;;23.30;99.90;;;;;;5072546;28;20113;-83